Time;durP1;ratioP1;P1;durP2;ratioP2;P2;SDS_P1;SDS_P2;PMS_P1;PMS_P2;Temp;Humidity;BMP_temperature;BMP_pressure;BME280_temperature;BME280_humidity;BME280_pressure;Samples;Min_cycle;Max_cycle;Signal;HPM_P1;HPM_P2
2022/11/13 00:01:14;;;;;;;47.75;28.05;;;13.40;99.90;;;;;;5064279;28;20096;-73
2022/11/13 00:03:39;;;;;;;36.30;24.08;;;13.50;99.90;;;;;;5061061;28;20753;-73
2022/11/13 00:06:05;;;;;;;37.88;24.90;;;13.40;99.90;;;;;;5066227;28;20043;-72
2022/11/13 00:08:31;;;;;;;40.20;24.90;;;13.50;99.90;;;;;;5057622;28;20042;-72
2022/11/13 00:11:02;;;;;;;46.55;28.52;;;13.40;99.90;;;;;;5061159;28;20037;-72
2022/11/13 00:13:27;;;;;;;32.92;23.17;;;13.40;99.90;;;;;;5038918;28;20111;-72
2022/11/13 00:16:01;;;;;;;45.53;26.77;;;13.40;99.90;;;;;;5067259;28;20558;-72
2022/11/13 00:18:28;;;;;;;41.35;25.55;;;13.40;99.90;;;;;;5064990;28;20107;-72
2022/11/13 00:21:02;;;;;;;44.28;25.90;;;13.30;99.90;;;;;;5067041;28;20027;-72
2022/11/13 00:23:33;;;;;;;41.08;25.10;;;13.30;99.90;;;;;;5067186;28;20043;-73
2022/11/13 00:26:07;;;;;;;42.70;26.38;;;13.30;99.90;;;;;;5067222;28;20123;-72
2022/11/13 00:28:33;;;;;;;40.90;25.52;;;13.30;99.90;;;;;;5047786;28;20020;-73
2022/11/13 00:31:03;;;;;;;49.17;28.13;;;13.30;99.90;;;;;;5066988;28;20032;-73
2022/11/13 00:33:29;;;;;;;34.35;23.00;;;13.30;99.90;;;;;;5033656;28;20123;-73
2022/11/13 00:36:02;;;;;;;39.60;24.15;;;13.30;99.90;;;;;;5066681;28;20064;-71
2022/11/13 00:38:28;;;;;;;41.83;25.75;;;13.30;99.90;;;;;;5047980;28;20021;-72
2022/11/13 00:40:53;;;;;;;43.22;26.17;;;13.20;99.90;;;;;;5048474;28;20043;-72
2022/11/13 00:43:19;;;;;;;42.95;26.33;;;13.20;99.90;;;;;;5066188;28;20036;-72
2022/11/13 00:45:44;;;;;;;48.58;27.95;;;13.20;99.90;;;;;;5066637;28;20032;-73
2022/11/13 00:48:10;;;;;;;49.92;27.63;;;13.20;99.90;;;;;;5047078;28;20032;-72
2022/11/13 00:50:36;;;;;;;49.20;26.55;;;13.20;99.90;;;;;;5047240;28;20030;-72
2022/11/13 00:53:01;;;;;;;54.25;28.13;;;13.20;99.90;;;;;;5066278;28;20063;-70
2022/11/13 00:55:27;;;;;;;47.15;26.05;;;13.20;99.90;;;;;;5065691;28;20103;-72
2022/11/13 00:57:52;;;;;;;46.22;26.23;;;13.20;99.90;;;;;;5065958;28;20070;-73
2022/11/13 01:00:18;;;;;;;37.13;22.60;;;13.20;99.90;;;;;;5066147;28;20401;-73
2022/11/13 01:02:43;;;;;;;39.08;24.50;;;13.20;99.90;;;;;;5065537;28;20033;-73
2022/11/13 01:05:09;;;;;;;40.40;24.35;;;13.20;99.90;;;;;;5047035;28;20064;-72
2022/11/13 01:07:36;;;;;;;40.72;24.52;;;13.20;99.90;;;;;;5065778;28;20040;-73
2022/11/13 01:10:04;;;;;;;49.95;26.30;;;13.20;99.90;;;;;;5066447;28;20039;-73
2022/11/13 01:12:29;;;;;;;46.08;24.98;;;13.20;99.90;;;;;;5048430;28;20047;-73
2022/11/13 01:14:55;;;;;;;38.22;24.35;;;13.20;99.90;;;;;;5058170;28;20476;-72
2022/11/13 01:17:21;;;;;;;45.50;25.75;;;13.20;99.90;;;;;;5028044;28;20025;-74
2022/11/13 01:19:47;;;;;;;45.67;26.48;;;13.10;99.90;;;;;;5047519;28;20584;-74
2022/11/13 01:22:12;;;;;;;47.55;25.92;;;13.10;99.90;;;;;;5065260;28;20032;-73
2022/11/13 01:24:38;;;;;;;46.65;28.25;;;13.10;99.90;;;;;;5065848;28;20042;-73
2022/11/13 01:27:04;;;;;;;42.50;25.17;;;13.20;99.90;;;;;;5065946;28;20028;-73
2022/11/13 01:29:29;;;;;;;48.72;27.05;;;13.10;99.90;;;;;;5051257;28;20700;-73
2022/11/13 01:31:55;;;;;;;42.92;25.38;;;13.10;99.90;;;;;;5070675;28;20032;-73
2022/11/13 01:34:20;;;;;;;48.03;27.27;;;13.10;99.90;;;;;;5070820;28;20826;-73
2022/11/13 01:36:46;;;;;;;37.45;23.50;;;13.10;99.90;;;;;;5069852;28;20060;-72
2022/11/13 01:39:12;;;;;;;41.25;24.92;;;13.10;99.90;;;;;;5068256;28;20056;-72
2022/11/13 01:41:38;;;;;;;49.30;27.42;;;13.20;99.90;;;;;;5068831;28;20025;-72
2022/11/13 01:44:09;;;;;;;44.85;24.45;;;13.10;99.90;;;;;;5069223;28;20040;-73
2022/11/13 01:46:41;;;;;;;36.40;22.80;;;13.20;99.90;;;;;;5062250;28;20032;-72
2022/11/13 01:49:09;;;;;;;43.30;26.10;;;13.20;99.90;;;;;;5041803;28;20099;-73
2022/11/13 01:51:58;;;;;;;41.72;24.88;;;13.20;99.90;;;;;;5069106;28;20059;-73
2022/11/13 01:54:35;;;;;;;49.15;26.17;;;13.20;99.90;;;;;;5050301;28;20135;-73
2022/11/13 01:57:02;;;;;;;43.05;25.08;;;13.10;99.90;;;;;;5069083;28;20042;-73
2022/11/13 01:59:33;;;;;;;44.13;26.17;;;13.20;99.90;;;;;;5069079;28;20025;-72
2022/11/13 02:01:59;;;;;;;46.97;26.00;;;13.20;99.90;;;;;;5068880;28;20939;-73
2022/11/13 02:04:26;;;;;;;44.95;26.63;;;13.20;99.90;;;;;;5065410;28;20043;-72
2022/11/13 02:06:56;;;;;;;43.50;25.05;;;13.10;99.90;;;;;;5045665;28;20132;-73
2022/11/13 02:09:26;;;;;;;43.08;24.50;;;13.10;99.90;;;;;;5050565;28;20040;-72
2022/11/13 02:11:52;;;;;;;43.88;25.23;;;13.10;99.90;;;;;;5068589;28;20082;-73
2022/11/13 02:14:20;;;;;;;37.35;22.58;;;13.20;99.90;;;;;;5068618;28;20029;-73
2022/11/13 02:16:48;;;;;;;44.47;27.17;;;13.20;99.90;;;;;;5063032;28;20112;-72
2022/11/13 02:19:38;;;;;;;46.60;25.40;;;13.20;99.90;;;;;;5049758;28;20051;-72
2022/11/13 02:22:06;;;;;;;49.78;26.80;;;13.10;99.90;;;;;;5064763;28;20028;-73
2022/11/13 02:24:38;;;;;;;49.58;26.85;;;13.20;99.90;;;;;;5067885;28;20106;-72
2022/11/13 02:27:07;;;;;;;44.97;25.05;;;13.20;99.90;;;;;;5067189;28;20063;-72
2022/11/13 02:29:33;;;;;;;38.95;23.48;;;13.20;99.90;;;;;;5068030;28;20553;-72
2022/11/13 02:31:58;;;;;;;46.30;25.90;;;13.20;99.90;;;;;;5051158;28;20111;-70
2022/11/13 02:34:24;;;;;;;47.90;25.13;;;13.20;99.90;;;;;;5061831;28;20028;-72
2022/11/13 02:36:50;;;;;;;41.35;24.83;;;13.20;99.90;;;;;;5068987;28;20086;-72
2022/11/13 02:39:15;;;;;;;39.13;23.73;;;13.20;99.90;;;;;;5051051;28;20112;-73
2022/11/13 02:41:41;;;;;;;45.58;24.77;;;13.20;99.90;;;;;;5068041;28;20024;-73
2022/11/13 02:44:07;;;;;;;47.92;26.38;;;13.20;99.90;;;;;;5068587;28;20029;-73
2022/11/13 02:46:33;;;;;;;40.97;23.50;;;13.20;99.90;;;;;;5069132;28;20056;-73
2022/11/13 02:48:59;;;;;;;39.40;23.77;;;13.20;99.90;;;;;;5067999;28;20032;-73
2022/11/13 02:51:25;;;;;;;44.17;25.77;;;13.30;99.90;;;;;;5049738;28;20029;-73
2022/11/13 02:53:51;;;;;;;45.45;25.63;;;13.30;99.90;;;;;;5068504;28;20032;-72
2022/11/13 02:56:16;;;;;;;45.42;25.83;;;13.30;99.90;;;;;;5068290;28;20535;-72
2022/11/13 02:58:42;;;;;;;45.78;26.40;;;13.30;99.90;;;;;;5066771;28;20051;-73
2022/11/13 03:01:08;;;;;;;39.70;23.35;;;13.30;99.90;;;;;;5063233;28;20099;-73
2022/11/13 03:03:33;;;;;;;41.90;24.95;;;13.30;99.90;;;;;;5046421;28;20164;-72
2022/11/13 03:05:59;;;;;;;40.45;24.80;;;13.30;99.90;;;;;;5048875;28;20375;-73
2022/11/13 03:08:25;;;;;;;45.58;25.75;;;13.30;99.90;;;;;;5067493;28;20040;-73
2022/11/13 03:10:54;;;;;;;40.83;24.45;;;13.30;99.90;;;;;;5068235;28;20033;-72
2022/11/13 03:13:20;;;;;;;38.67;22.63;;;13.30;99.90;;;;;;5049680;28;20029;-73
2022/11/13 03:15:45;;;;;;;35.80;23.83;;;13.30;99.90;;;;;;5067761;28;20082;-73
2022/11/13 03:18:11;;;;;;;41.70;24.70;;;13.30;99.90;;;;;;5067520;28;20945;-72
2022/11/13 03:20:39;;;;;;;44.35;25.83;;;13.40;99.90;;;;;;5067971;28;20032;-71
2022/11/13 03:23:05;;;;;;;47.33;26.33;;;13.30;99.90;;;;;;5043702;28;20158;-72
2022/11/13 03:25:32;;;;;;;37.70;24.00;;;13.30;99.90;;;;;;5067815;28;20083;-73
2022/11/13 03:27:58;;;;;;;40.72;25.35;;;13.30;99.90;;;;;;5067852;28;20040;-73
2022/11/13 03:30:23;;;;;;;43.22;25.50;;;13.30;99.90;;;;;;5067196;28;20031;-72
2022/11/13 03:32:56;;;;;;;34.22;23.65;;;13.30;99.90;;;;;;5067269;28;20454;-72
2022/11/13 03:35:23;;;;;;;35.05;22.63;;;13.40;99.90;;;;;;5067776;28;20036;-72
2022/11/13 03:37:49;;;;;;;40.35;24.33;;;13.30;99.90;;;;;;5067054;28;20028;-72
2022/11/13 03:40:14;;;;;;;41.88;25.90;;;13.30;99.90;;;;;;5067466;28;20020;-72
2022/11/13 03:42:40;;;;;;;36.75;24.17;;;13.30;99.90;;;;;;5066458;28;20033;-72
2022/11/13 03:45:06;;;;;;;42.35;24.63;;;13.30;99.90;;;;;;5067657;28;20040;-72
2022/11/13 03:47:31;;;;;;;43.30;24.67;;;13.30;99.90;;;;;;5067498;28;20509;-73
2022/11/13 03:49:57;;;;;;;34.25;22.48;;;13.30;99.90;;;;;;5049165;28;20102;-72
2022/11/13 03:52:22;;;;;;;38.90;23.10;;;13.30;99.90;;;;;;5066266;28;20044;-72
2022/11/13 03:54:48;;;;;;;38.60;23.95;;;13.30;99.90;;;;;;5067839;28;20047;-73
2022/11/13 03:57:14;;;;;;;35.55;22.77;;;13.30;99.90;;;;;;5066383;28;20062;-72
2022/11/13 03:59:39;;;;;;;32.15;21.65;;;13.30;99.90;;;;;;5066722;28;20166;-72
2022/11/13 04:02:05;;;;;;;40.47;23.60;;;13.30;99.90;;;;;;5066785;28;20702;-72
2022/11/13 04:04:30;;;;;;;37.15;22.73;;;13.30;99.90;;;;;;5058965;28;20056;-73
2022/11/13 04:06:56;;;;;;;38.65;23.80;;;13.30;99.90;;;;;;5066361;28;20041;-72
2022/11/13 04:09:22;;;;;;;35.58;21.13;;;13.30;99.90;;;;;;5061399;28;20037;-72
2022/11/13 04:11:47;;;;;;;35.65;22.83;;;13.30;99.90;;;;;;5066043;28;20034;-72
2022/11/13 04:14:13;;;;;;;33.72;20.88;;;13.30;99.90;;;;;;5066127;28;20028;-73
2022/11/13 04:16:38;;;;;;;41.42;23.88;;;13.30;99.90;;;;;;5066655;28;20069;-73
2022/11/13 04:19:04;;;;;;;48.28;25.08;;;13.30;99.90;;;;;;5048171;28;20028;-72
2022/11/13 04:21:30;;;;;;;48.08;25.25;;;13.30;99.90;;;;;;5065939;28;20048;-73
2022/11/13 04:23:55;;;;;;;53.65;27.50;;;13.20;99.90;;;;;;5065542;28;20032;-72
2022/11/13 04:26:21;;;;;;;50.92;25.50;;;13.20;99.90;;;;;;5047039;28;20036;-72
2022/11/13 04:28:47;;;;;;;49.80;26.10;;;13.20;99.90;;;;;;5065517;28;20039;-72
2022/11/13 04:31:13;;;;;;;41.30;24.33;;;13.20;99.90;;;;;;5065609;28;20028;-72
2022/11/13 04:33:38;;;;;;;47.28;25.73;;;13.20;99.90;;;;;;5048653;28;20527;-73
2022/11/13 04:36:04;;;;;;;41.95;24.08;;;13.20;99.90;;;;;;5046481;28;20032;-72
2022/11/13 04:38:30;;;;;;;45.38;24.27;;;13.20;99.90;;;;;;5064278;28;20032;-72
2022/11/13 04:43:40;;;;;;;40.90;23.58;;;13.20;99.90;;;;;;5059753;28;20519;-72
2022/11/13 04:46:06;;;;;;;39.55;24.25;;;13.10;99.90;;;;;;5064960;28;20024;-72
2022/11/13 04:48:31;;;;;;;40.90;25.10;;;13.10;99.90;;;;;;5065360;28;20036;-73
2022/11/13 04:50:57;;;;;;;47.20;25.15;;;13.10;99.90;;;;;;5047966;28;20031;-71
2022/11/13 04:53:22;;;;;;;49.25;24.63;;;13.00;99.90;;;;;;5064979;28;20466;-73
2022/11/13 04:55:48;;;;;;;52.40;28.02;;;13.00;99.90;;;;;;5045843;28;20470;-72
2022/11/13 04:58:14;;;;;;;47.20;25.42;;;13.00;99.90;;;;;;5054935;28;20044;-71
2022/11/13 05:00:39;;;;;;;52.40;26.00;;;13.00;99.90;;;;;;5064735;28;20032;-73
2022/11/13 05:03:05;;;;;;;59.25;26.27;;;13.00;99.90;;;;;;5044487;28;20032;-71
2022/11/13 05:05:30;;;;;;;45.85;23.52;;;13.00;99.90;;;;;;5065985;28;20048;-72
2022/11/13 05:07:56;;;;;;;46.58;22.40;;;13.00;99.90;;;;;;5065930;28;20111;-71
2022/11/13 05:10:22;;;;;;;51.60;24.58;;;12.90;99.90;;;;;;5065139;28;20115;-72
2022/11/13 05:12:47;;;;;;;61.35;27.60;;;12.90;99.90;;;;;;5064034;28;20040;-73
2022/11/13 05:15:13;;;;;;;61.42;27.10;;;12.90;99.90;;;;;;5046438;28;20138;-72
2022/11/13 05:17:38;;;;;;;48.97;24.40;;;12.90;99.90;;;;;;5058157;28;20028;-72
2022/11/13 05:20:04;;;;;;;47.55;23.63;;;12.90;99.90;;;;;;5057466;28;20028;-72
2022/11/13 05:22:30;;;;;;;56.47;25.80;;;12.80;99.90;;;;;;5042684;28;20601;-72
2022/11/13 05:24:56;;;;;;;57.42;27.52;;;12.80;99.90;;;;;;5064970;28;20040;-72
2022/11/13 05:27:21;;;;;;;49.60;24.50;;;12.80;99.90;;;;;;5054206;28;20063;-71
2022/11/13 05:29:47;;;;;;;51.03;23.90;;;12.80;99.90;;;;;;5046041;28;20032;-72
2022/11/13 05:32:12;;;;;;;51.30;24.85;;;12.80;99.90;;;;;;5045014;28;20111;-73
2022/11/13 05:34:38;;;;;;;50.33;24.20;;;12.70;99.90;;;;;;5062713;28;20028;-72
2022/11/13 05:37:03;;;;;;;59.67;25.10;;;12.70;99.90;;;;;;5063828;28;20029;-72
2022/11/13 05:39:29;;;;;;;48.55;23.30;;;12.70;99.90;;;;;;5052962;28;20163;-72
2022/11/13 05:41:55;;;;;;;55.67;25.90;;;12.70;99.90;;;;;;5047140;28;20029;-72
2022/11/13 05:44:20;;;;;;;60.78;25.52;;;12.70;99.90;;;;;;5064294;28;20146;-73
2022/11/13 05:46:46;;;;;;;54.95;22.40;;;12.70;99.90;;;;;;5045273;28;20752;-72
2022/11/13 05:49:11;;;;;;;62.25;24.42;;;12.70;99.90;;;;;;5053754;28;20249;-72
2022/11/13 05:51:37;;;;;;;70.55;25.85;;;12.70;99.90;;;;;;5044286;28;20060;-72
2022/11/13 05:54:03;;;;;;;50.35;22.70;;;12.70;99.90;;;;;;5064043;28;20105;-72
2022/11/13 05:56:34;;;;;;;70.70;26.17;;;12.60;99.90;;;;;;5044151;28;20037;-72
2022/11/13 05:59:02;;;;;;;65.30;24.58;;;12.60;99.90;;;;;;5055461;28;20047;-72
2022/11/13 06:01:31;;;;;;;76.07;24.50;;;12.60;99.90;;;;;;5047667;28;20383;-72
2022/11/13 06:03:58;;;;;;;;;;;12.60;99.90;;;;;;5066156;28;20035;-72
2022/11/13 06:06:24;;;;;;;60.38;22.83;;;12.50;99.90;;;;;;5065943;28;19912;-72
2022/11/13 06:08:51;;;;;;;69.80;23.50;;;12.50;99.90;;;;;;5062893;28;20036;-73
2022/11/13 06:11:19;;;;;;;87.97;25.83;;;12.50;99.90;;;;;;5064434;28;20056;-73
2022/11/13 06:13:45;;;;;;;87.53;26.38;;;12.50;99.90;;;;;;5037300;28;20116;-72
2022/11/13 06:16:19;;;;;;;74.63;25.98;;;12.50;99.90;;;;;;5047776;28;20115;-73
2022/11/13 06:18:46;;;;;;;58.28;23.38;;;12.50;99.90;;;;;;5068344;28;20032;-72
2022/11/13 06:21:16;;;;;;;82.93;28.42;;;12.50;99.90;;;;;;5036661;28;20570;-72
2022/11/13 06:23:42;;;;;;;107.32;27.60;;;12.50;99.90;;;;;;5068686;28;20032;-72
2022/11/13 06:26:10;;;;;;;84.22;26.83;;;12.50;99.90;;;;;;5049647;28;20487;-72
2022/11/13 06:28:36;;;;;;;63.30;23.52;;;12.50;99.90;;;;;;5067051;28;20029;-72
2022/11/13 06:31:04;;;;;;;66.50;24.48;;;12.50;99.90;;;;;;5067284;28;20032;-72
2022/11/13 06:33:30;;;;;;;65.40;21.92;;;12.50;99.90;;;;;;5041712;28;20025;-72
2022/11/13 06:35:55;;;;;;;72.18;20.35;;;12.40;99.90;;;;;;5068057;28;20035;-72
2022/11/13 06:38:21;;;;;;;55.85;21.02;;;12.40;99.90;;;;;;5068093;28;20398;-73
2022/11/13 06:40:46;;;;;;;73.05;23.52;;;12.40;99.90;;;;;;5067659;28;20020;-73
2022/11/13 06:43:12;;;;;;;69.00;23.70;;;12.40;99.90;;;;;;5067556;28;20086;-72
2022/11/13 06:45:38;;;;;;;60.15;23.05;;;12.30;99.90;;;;;;5045543;28;20088;-72
2022/11/13 06:48:03;;;;;;;58.88;21.55;;;12.40;99.90;;;;;;5046527;28;20037;-71
2022/11/13 06:50:29;;;;;;;85.53;24.33;;;12.40;99.90;;;;;;5049326;28;20035;-72
2022/11/13 06:52:55;;;;;;;71.25;22.60;;;12.40;99.90;;;;;;5067847;28;20115;-73
2022/11/13 06:55:20;;;;;;;58.85;20.77;;;12.30;99.90;;;;;;5069667;28;20048;-72
2022/11/13 06:57:46;;;;;;;81.95;21.05;;;12.30;99.90;;;;;;5067735;28;20028;-72
2022/11/13 07:00:12;;;;;;;56.58;19.25;;;12.30;99.90;;;;;;5047541;28;20024;-72
2022/11/13 07:02:37;;;;;;;61.17;19.42;;;12.30;99.90;;;;;;5066932;28;20576;-73
2022/11/13 07:05:03;;;;;;;99.93;21.00;;;12.30;99.90;;;;;;5066831;28;20127;-71
2022/11/13 07:07:29;;;;;;;80.88;22.42;;;12.30;99.90;;;;;;5046047;28;20130;-72
2022/11/13 07:09:54;;;;;;;116.28;24.45;;;12.30;99.90;;;;;;5063951;28;20131;-72
2022/11/13 07:12:20;;;;;;;109.55;19.80;;;12.20;99.90;;;;;;5046858;28;20076;-72
2022/11/13 07:14:45;;;;;;;38.13;16.50;;;12.20;99.90;;;;;;5067497;28;20029;-72
2022/11/13 07:17:11;;;;;;;73.05;17.98;;;12.20;99.90;;;;;;5067871;28;20028;-72
2022/11/13 07:19:36;;;;;;;66.32;18.10;;;12.20;99.90;;;;;;5049415;28;20029;-73
2022/11/13 07:22:02;;;;;;;54.08;16.88;;;12.20;99.90;;;;;;5067202;28;20128;-72
2022/11/13 07:24:27;;;;;;;51.10;16.77;;;12.20;99.90;;;;;;5066885;28;20048;-71
2022/11/13 07:26:53;;;;;;;111.15;18.35;;;12.20;99.90;;;;;;5063070;28;20090;-72
2022/11/13 07:29:19;;;;;;;58.75;16.15;;;12.10;99.90;;;;;;5065236;28;20056;-73
2022/11/13 07:31:44;;;;;;;62.95;16.02;;;12.10;99.90;;;;;;5066093;28;20025;-72
2022/11/13 07:34:10;;;;;;;71.63;17.13;;;12.10;99.90;;;;;;5065837;28;20709;-73
2022/11/13 07:36:35;;;;;;;43.72;15.18;;;12.00;99.90;;;;;;5047416;28;20020;-73
2022/11/13 07:39:01;;;;;;;41.95;14.18;;;12.00;99.90;;;;;;5067237;28;20036;-72
2022/11/13 07:41:27;;;;;;;79.85;18.15;;;12.00;99.90;;;;;;5044133;28;20678;-73
2022/11/13 07:43:52;;;;;;;41.08;14.90;;;12.00;99.90;;;;;;5046607;28;20032;-73
2022/11/13 07:46:18;;;;;;;67.93;15.27;;;12.00;99.90;;;;;;5065793;28;20491;-74
2022/11/13 07:48:43;;;;;;;52.00;14.68;;;11.90;99.90;;;;;;5068492;28;20051;-72
2022/11/13 07:51:09;;;;;;;65.07;16.15;;;11.90;99.90;;;;;;5068475;28;20024;-72
2022/11/13 07:53:35;;;;;;;47.33;14.80;;;11.80;99.90;;;;;;5066718;28;20058;-73
2022/11/13 07:56:02;;;;;;;43.00;14.88;;;11.90;99.90;;;;;;5066616;28;20508;-73
2022/11/13 07:58:28;;;;;;;50.97;16.70;;;11.90;99.90;;;;;;5065976;28;20028;-70
2022/11/13 08:00:54;;;;;;;33.22;12.65;;;11.90;99.90;;;;;;5066996;28;20029;-73
2022/11/13 08:03:20;;;;;;;39.70;14.30;;;11.80;99.90;;;;;;5046211;28;20481;-72
2022/11/13 08:05:45;;;;;;;39.20;14.85;;;11.80;99.90;;;;;;5063977;28;20036;-72
2022/11/13 08:08:12;;;;;;;53.63;13.50;;;11.70;99.90;;;;;;5068264;28;20439;-72
2022/11/13 08:10:38;;;;;;;50.72;13.63;;;11.70;99.90;;;;;;5066421;28;20032;-72
2022/11/13 08:13:07;;;;;;;55.63;15.82;;;11.70;99.90;;;;;;5064904;28;20043;-71
2022/11/13 08:15:33;;;;;;;42.80;16.25;;;11.70;99.90;;;;;;5064520;28;20047;-71
2022/11/13 08:18:01;;;;;;;43.17;15.65;;;11.70;99.90;;;;;;5067743;28;20033;-71
2022/11/13 08:20:28;;;;;;;48.85;16.60;;;11.80;99.90;;;;;;5045505;28;20110;-73
2022/11/13 08:22:58;;;;;;;48.75;15.75;;;11.80;99.90;;;;;;5065749;28;20115;-72
2022/11/13 08:25:24;;;;;;;104.32;18.98;;;11.80;99.90;;;;;;5064296;28;20025;-73
2022/11/13 08:27:52;;;;;;;61.33;16.23;;;11.80;99.90;;;;;;5064125;28;20131;-72
2022/11/13 08:30:18;;;;;;;57.67;18.10;;;11.80;99.90;;;;;;5063210;28;20043;-72
2022/11/13 08:32:44;;;;;;;57.80;16.83;;;11.80;99.90;;;;;;5064281;28;20036;-71
2022/11/13 08:35:10;;;;;;;68.50;17.63;;;11.80;99.90;;;;;;5064137;28;20111;-71
2022/11/13 08:37:35;;;;;;;43.08;16.95;;;11.80;99.90;;;;;;5049109;28;20031;-72
2022/11/13 08:40:01;;;;;;;34.53;15.38;;;11.80;99.90;;;;;;5052538;28;20020;-73
2022/11/13 08:42:26;;;;;;;36.05;15.93;;;11.90;99.90;;;;;;5062210;28;20596;-72
2022/11/13 08:44:52;;;;;;;43.28;19.27;;;11.90;99.90;;;;;;5061502;28;20118;-72
2022/11/13 08:47:18;;;;;;;52.90;19.33;;;11.90;99.90;;;;;;5064587;28;20044;-73
2022/11/13 08:49:43;;;;;;;31.45;16.88;;;12.00;99.90;;;;;;5065277;28;20035;-72
2022/11/13 08:52:09;;;;;;;33.05;16.38;;;12.00;99.90;;;;;;5053084;28;20047;-72
2022/11/13 08:54:34;;;;;;;48.72;19.08;;;12.00;99.90;;;;;;5048470;28;20113;-71
2022/11/13 08:57:00;;;;;;;39.30;18.60;;;12.10;99.90;;;;;;5062732;28;20233;-73
2022/11/13 08:59:26;;;;;;;31.30;16.75;;;12.10;99.90;;;;;;5059020;28;20044;-71
2022/11/13 09:01:57;;;;;;;56.10;20.25;;;12.10;99.90;;;;;;5034128;28;20506;-71
2022/11/13 09:04:24;;;;;;;49.30;20.50;;;12.10;99.90;;;;;;5057167;28;20020;-71
2022/11/13 09:06:50;;;;;;;57.40;22.50;;;12.20;99.90;;;;;;5054852;28;20662;-72
2022/11/13 09:09:16;;;;;;;59.55;21.45;;;12.20;99.90;;;;;;5046659;28;20098;-71
2022/11/13 09:11:41;;;;;;;68.30;24.13;;;12.20;99.90;;;;;;5054591;28;20473;-71
2022/11/13 09:14:07;;;;;;;37.88;21.52;;;12.30;99.90;;;;;;5057198;28;20029;-71
2022/11/13 09:16:33;;;;;;;57.58;24.98;;;12.30;99.90;;;;;;5060887;28;20043;-71
2022/11/13 09:18:58;;;;;;;40.67;22.23;;;12.40;99.90;;;;;;5067351;28;20090;-71
2022/11/13 09:21:24;;;;;;;34.38;19.67;;;12.50;99.90;;;;;;5042573;28;20564;-73
2022/11/13 09:23:50;;;;;;;47.50;24.73;;;12.50;99.90;;;;;;5054882;28;20025;-71
2022/11/13 09:26:16;;;;;;;52.28;26.30;;;12.60;99.90;;;;;;5059988;28;20037;-71
2022/11/13 09:28:42;;;;;;;39.38;21.95;;;12.60;99.90;;;;;;5042951;28;20064;-71
2022/11/13 09:31:08;;;;;;;47.90;25.45;;;12.70;99.90;;;;;;5063745;28;20067;-70
2022/11/13 09:33:34;;;;;;;45.78;24.38;;;12.70;99.90;;;;;;5059826;28;20078;-71
2022/11/13 09:36:00;;;;;;;42.60;23.55;;;12.80;99.90;;;;;;5062778;28;20037;-71
2022/11/13 09:38:25;;;;;;;33.65;21.67;;;12.80;99.90;;;;;;5058124;28;20478;-70
2022/11/13 09:41:18;;;;;;;37.78;21.88;;;12.80;99.90;;;;;;5062429;28;20021;-71
2022/11/13 09:43:49;;;;;;;41.10;23.95;;;12.80;99.90;;;;;;5060936;28;20833;-72
2022/11/13 09:46:40;;;;;;;42.53;24.55;;;12.80;99.90;;;;;;5062169;28;20028;-72
2022/11/13 09:49:12;;;;;;;43.47;25.38;;;12.80;99.90;;;;;;5058434;28;20043;-71
2022/11/13 09:51:38;;;;;;;41.78;24.38;;;12.90;99.90;;;;;;5067427;28;20504;-73
2022/11/13 09:54:08;;;;;;;42.53;25.65;;;13.00;99.90;;;;;;5055726;28;20036;-71
2022/11/13 09:56:43;;;;;;;42.88;25.80;;;13.00;99.90;;;;;;5045788;28;20398;-71
2022/11/13 09:59:11;;;;;;;40.92;25.02;;;13.00;99.90;;;;;;5065732;28;20075;-73
2022/11/13 10:01:48;;;;;;;39.67;26.08;;;13.10;99.90;;;;;;5066076;28;20090;-72
2022/11/13 10:04:18;;;;;;;31.80;20.90;;;13.10;99.90;;;;;;5042612;28;20035;-70
2022/11/13 10:06:51;;;;;;;35.45;23.33;;;13.10;99.90;;;;;;5048571;28;20059;-73
2022/11/13 10:09:32;;;;;;;33.92;23.15;;;13.20;99.90;;;;;;5066488;28;20028;-72
2022/11/13 10:12:05;;;;;;;31.77;21.30;;;13.20;99.90;;;;;;5046995;28;20036;-71
2022/11/13 10:14:41;;;;;;;31.33;21.70;;;13.30;99.90;;;;;;5067133;28;20082;-73
2022/11/13 10:17:30;;;;;;;34.85;23.10;;;13.40;99.90;;;;;;5047595;28;20036;-72
2022/11/13 10:20:10;;;;;;;35.40;23.13;;;13.50;99.90;;;;;;5063942;28;20050;-72
2022/11/13 10:22:49;;;;;;;28.25;21.33;;;13.50;99.90;;;;;;5060690;28;20037;-72
2022/11/13 10:25:19;;;;;;;31.42;22.85;;;13.60;99.90;;;;;;5066221;28;20165;-74
2022/11/13 10:27:59;;;;;;;28.42;19.98;;;13.70;99.90;;;;;;5045910;28;20114;-72
2022/11/13 10:30:25;;;;;;;27.10;19.63;;;13.80;99.90;;;;;;5048384;28;20538;-71
2022/11/13 10:32:51;;;;;;;26.23;16.95;;;13.90;99.90;;;;;;5065572;28;20024;-72
2022/11/13 10:35:20;;;;;;;24.38;17.85;;;14.00;99.90;;;;;;5069112;28;20036;-72
2022/11/13 10:38:02;;;;;;;20.83;15.80;;;14.10;99.90;;;;;;5067269;28;20121;-72
2022/11/13 10:40:33;;;;;;;23.40;17.67;;;14.10;99.90;;;;;;5067835;28;20032;-72
2022/11/13 10:43:12;;;;;;;24.70;18.33;;;14.20;99.90;;;;;;5066004;28;20039;-71
2022/11/13 10:45:39;;;;;;;20.65;15.77;;;14.20;99.90;;;;;;5065034;28;20371;-71
2022/11/13 10:48:05;;;;;;;25.42;17.20;;;14.30;99.90;;;;;;5064279;28;20482;-71
2022/11/13 10:50:31;;;;;;;21.02;15.30;;;14.20;99.90;;;;;;5048236;28;20036;-70
2022/11/13 10:52:57;;;;;;;20.02;15.27;;;14.30;99.90;;;;;;5067759;28;20115;-71
2022/11/13 10:55:38;;;;;;;24.85;16.20;;;14.30;99.90;;;;;;5065419;28;20115;-72
2022/11/13 10:58:15;;;;;;;20.80;15.15;;;14.30;99.90;;;;;;5064136;28;20047;-72
2022/11/13 11:00:43;;;;;;;22.95;16.67;;;14.40;99.90;;;;;;5044066;28;20086;-72
2022/11/13 11:03:28;;;;;;;20.70;15.20;;;14.50;99.90;;;;;;5067444;28;20033;-72
2022/11/13 11:05:55;;;;;;;20.90;14.93;;;14.50;99.90;;;;;;5049619;28;20820;-71
2022/11/13 11:08:32;;;;;;;19.73;15.85;;;14.50;99.90;;;;;;5049409;28;20535;-73
2022/11/13 11:13:50;;;;;;;19.65;14.98;;;14.60;99.90;;;;;;5062416;28;20036;-73
2022/11/13 11:16:23;;;;;;;20.45;14.45;;;14.70;99.90;;;;;;5066503;28;20414;-73
2022/11/13 11:18:57;;;;;;;18.20;14.02;;;14.80;99.90;;;;;;5068752;28;20029;-73
2022/11/13 11:21:30;;;;;;;18.27;13.27;;;14.80;99.90;;;;;;5066653;28;20062;-72
2022/11/13 11:24:11;;;;;;;17.13;12.63;;;14.80;99.90;;;;;;5056251;28;20509;-71
2022/11/13 11:26:44;;;;;;;17.73;14.13;;;14.80;99.90;;;;;;5042168;28;20044;-73
2022/11/13 11:29:25;;;;;;;17.02;12.43;;;14.80;99.90;;;;;;5067056;28;20155;-73
2022/11/13 11:32:06;;;;;;;16.17;12.65;;;14.90;99.90;;;;;;5045715;28;20024;-72
2022/11/13 11:35:10;;;;;;;17.95;12.68;;;14.90;99.90;;;;;;5047874;28;20177;-71
2022/11/13 11:37:50;;;;;;;17.23;12.15;;;15.00;99.90;;;;;;5025281;28;20049;-72
2022/11/13 11:40:19;;;;;;;16.38;12.07;;;15.10;99.90;;;;;;5039749;28;20079;-73
2022/11/13 11:43:24;;;;;;;15.10;10.93;;;15.20;99.90;;;;;;5040898;28;20033;-71
2022/11/13 11:45:50;;;;;;;14.43;9.13;;;15.40;99.90;;;;;;5028238;28;20521;-72
2022/11/13 11:48:20;;;;;;;13.68;9.20;;;15.40;99.90;;;;;;5065820;28;20042;-73
2022/11/13 11:51:14;;;;;;;;;;;15.50;99.90;;;;;;5067549;28;20032;-72
2022/11/13 11:54:11;;;;;;;16.10;9.07;;;15.60;99.90;;;;;;5038682;28;20270;-73
2022/11/13 11:56:56;;;;;;;13.45;8.30;;;15.60;99.90;;;;;;5063432;28;20089;-73
2022/11/13 11:59:30;;;;;;;14.68;7.68;;;15.70;99.90;;;;;;5047584;28;20032;-72
2022/11/13 12:02:05;;;;;;;11.07;7.05;;;15.70;99.90;;;;;;5048313;28;20036;-73
2022/11/13 12:04:51;;;;;;;11.38;6.72;;;15.80;99.90;;;;;;5059098;28;20105;-73
2022/11/13 12:07:37;;;;;;;11.15;5.90;;;15.70;99.90;;;;;;5064015;28;20684;-73
2022/11/13 12:10:17;;;;;;;11.30;6.15;;;15.70;99.90;;;;;;5065477;28;20036;-72
2022/11/13 12:13:16;;;;;;;10.00;6.20;;;15.80;99.90;;;;;;5061501;28;20136;-71
2022/11/13 12:16:14;;;;;;;9.38;5.68;;;15.90;99.90;;;;;;5049123;28;20399;-73
2022/11/13 12:18:40;;;;;;;9.77;5.50;;;15.90;99.90;;;;;;5071261;28;20025;-70
2022/11/13 12:21:22;;;;;;;8.60;5.38;;;16.00;99.90;;;;;;5067093;28;20048;-72
2022/11/13 12:23:54;;;;;;;8.73;5.85;;;16.00;99.90;;;;;;5047211;28;20029;-71
2022/11/13 12:26:45;;;;;;;10.85;5.00;;;16.00;99.90;;;;;;5066062;28;20058;-71
2022/11/13 12:29:39;;;;;;;7.40;4.78;;;16.00;99.90;;;;;;5026986;28;20037;-72
2022/11/13 12:32:23;;;;;;;10.20;5.00;;;16.10;99.90;;;;;;5029461;28;20021;-71
2022/11/13 12:34:56;;;;;;;8.82;4.88;;;16.10;99.90;;;;;;5064115;28;20112;-72
2022/11/13 12:37:53;;;;;;;7.90;4.45;;;16.10;99.90;;;;;;5065812;28;20029;-72
2022/11/13 12:40:32;;;;;;;8.20;4.70;;;16.10;99.90;;;;;;5046753;28;20086;-73
2022/11/13 12:43:06;;;;;;;9.73;5.13;;;16.10;99.90;;;;;;5034660;28;20437;-73